Time;durP1;ratioP1;P1;durP2;ratioP2;P2;SDS_P1;SDS_P2;PMS_P1;PMS_P2;Temp;Humidity;BMP_temperature;BMP_pressure;BME280_temperature;BME280_humidity;BME280_pressure;Samples;Min_cycle;Max_cycle;Signal;HPM_P1;HPM_P2
2022/08/23 00:05:58;;;;;;;4.68;1.70;;;22.00;99.90;;;;;;12492455;28;20409;-82
2022/08/23 00:12:18;;;;;;;4.95;1.52;;;22.00;99.90;;;;;;12476750;28;20528;-81
2022/08/23 00:18:21;;;;;;;6.18;1.67;;;22.00;99.90;;;;;;12481160;28;20069;-81
2022/08/23 00:24:26;;;;;;;5.13;1.67;;;22.00;99.90;;;;;;12482108;28;20625;-81
2022/08/23 00:30:28;;;;;;;5.18;1.60;;;22.00;99.90;;;;;;12502735;28;20050;-82
2022/08/23 00:36:30;;;;;;;4.32;1.52;;;21.80;99.90;;;;;;12457362;28;20421;-81
2022/08/23 00:49:17;;;;;;;4.75;1.50;;;21.90;99.90;;;;;;12488827;28;20050;-81
2022/08/23 00:55:20;;;;;;;6.82;1.60;;;21.90;99.90;;;;;;12481546;28;20095;-81
2022/08/23 01:01:23;;;;;;;4.27;1.83;;;21.80;99.90;;;;;;12480696;28;20504;-80
2022/08/23 01:07:50;;;;;;;6.47;1.93;;;21.80;99.90;;;;;;12475522;28;20045;-82
2022/08/23 01:13:59;;;;;;;5.32;1.90;;;21.80;99.90;;;;;;12499964;28;20132;-80
2022/08/23 01:20:06;;;;;;;5.40;1.88;;;21.70;99.90;;;;;;12487483;28;20414;-80
2022/08/23 01:26:16;;;;;;;4.82;1.70;;;21.60;99.90;;;;;;12473900;28;20041;-80
2022/08/23 01:32:24;;;;;;;5.00;1.90;;;21.70;99.90;;;;;;12488632;28;20133;-81
2022/08/23 01:38:26;;;;;;;;;;;21.60;99.90;;;;;;12477119;28;20057;-81
2022/08/23 01:44:34;;;;;;;3.92;1.73;;;21.60;99.90;;;;;;12495728;28;19948;-80
2022/08/23 01:50:37;;;;;;;9.27;1.40;;;21.60;99.90;;;;;;12469472;28;20820;-82
2022/08/23 01:56:41;;;;;;;4.57;1.60;;;21.50;99.90;;;;;;12474280;28;20049;-83
2022/08/23 02:02:45;;;;;;;6.10;1.67;;;21.60;99.90;;;;;;12472689;28;20125;-80
2022/08/23 02:08:59;;;;;;;3.15;1.60;;;21.50;99.90;;;;;;12500588;28;20052;-81
2022/08/23 02:15:04;;;;;;;4.15;1.88;;;21.40;99.90;;;;;;12471039;28;20497;-81
2022/08/23 02:21:09;;;;;;;5.60;1.80;;;21.40;99.90;;;;;;12483981;28;20068;-81
2022/08/23 02:27:14;;;;;;;5.35;1.70;;;21.40;99.90;;;;;;12486447;28;20053;-81
2022/08/23 02:33:16;;;;;;;4.28;1.70;;;21.30;99.90;;;;;;12477711;28;20069;-81
2022/08/23 02:39:19;;;;;;;5.93;1.83;;;21.40;99.90;;;;;;12494699;28;20038;-81
2022/08/23 02:45:22;;;;;;;3.60;1.60;;;21.30;99.90;;;;;;12504864;28;20038;-81
2022/08/23 02:51:25;;;;;;;3.15;1.40;;;21.30;99.90;;;;;;12480473;28;20131;-81
2022/08/23 02:57:29;;;;;;;7.47;1.98;;;21.40;99.90;;;;;;12479029;28;20054;-81
2022/08/23 03:03:36;;;;;;;8.10;1.73;;;21.30;99.90;;;;;;12493731;28;20049;-80
2022/08/23 03:09:38;;;;;;;7.57;1.80;;;21.30;99.90;;;;;;12497551;28;20051;-80
2022/08/23 03:15:45;;;;;;;6.50;1.90;;;21.30;99.90;;;;;;12505840;28;20191;-81
2022/08/23 03:21:48;;;;;;;5.93;1.98;;;21.30;99.90;;;;;;12493532;28;20072;-80
2022/08/23 03:27:51;;;;;;;4.35;1.60;;;21.30;99.90;;;;;;12483006;28;20053;-81
2022/08/23 03:33:53;;;;;;;5.18;1.70;;;21.40;99.90;;;;;;12509187;28;20045;-80
2022/08/23 03:39:55;;;;;;;5.28;1.83;;;21.30;99.90;;;;;;12502905;28;20049;-80
2022/08/23 03:45:58;;;;;;;6.57;1.80;;;21.30;99.90;;;;;;12484852;28;20049;-80
2022/08/23 03:52:07;;;;;;;4.82;1.67;;;21.30;99.90;;;;;;12513690;28;20428;-80
2022/08/23 03:58:12;;;;;;;5.30;1.60;;;21.30;99.90;;;;;;12509025;28;20063;-81
2022/08/23 04:04:14;;;;;;;8.15;1.70;;;21.20;99.90;;;;;;12502539;28;20037;-80
2022/08/23 04:10:16;;;;;;;5.43;1.80;;;21.30;99.90;;;;;;12498757;28;20052;-80
2022/08/23 04:16:19;;;;;;;13.93;2.58;;;21.30;99.90;;;;;;12499806;28;20049;-81
2022/08/23 04:22:21;;;;;;;5.13;1.48;;;21.30;99.90;;;;;;12528389;28;20053;-80
2022/08/23 04:28:23;;;;;;;3.22;1.55;;;21.30;99.90;;;;;;12496217;28;20079;-80
2022/08/23 04:34:26;;;;;;;4.65;1.50;;;21.30;99.90;;;;;;12510374;28;20045;-80
2022/08/23 04:46:51;;;;;;;4.32;1.50;;;21.30;99.90;;;;;;12507528;28;20072;-80
2022/08/23 04:52:53;;;;;;;4.05;1.40;;;21.30;99.90;;;;;;12486151;28;20050;-80
2022/08/23 04:58:55;;;;;;;8.75;1.45;;;21.30;99.90;;;;;;12514271;28;20053;-80
2022/08/23 05:04:59;;;;;;;6.35;1.85;;;21.30;99.90;;;;;;12498690;28;20568;-80
2022/08/23 05:11:05;;;;;;;7.55;1.75;;;21.20;99.90;;;;;;12499157;28;20409;-80
2022/08/23 05:17:07;;;;;;;4.25;1.67;;;21.20;99.90;;;;;;12485261;28;20058;-80
2022/08/23 05:23:09;;;;;;;2.57;1.30;;;21.20;99.90;;;;;;12504786;28;20041;-80
2022/08/23 05:29:12;;;;;;;5.30;1.55;;;21.10;99.90;;;;;;12502650;28;20053;-81
2022/08/23 05:35:16;;;;;;;5.72;1.60;;;21.10;99.90;;;;;;12519465;28;20525;-80
2022/08/23 05:41:19;;;;;;;3.47;1.48;;;21.00;99.90;;;;;;12507842;28;20053;-80
2022/08/23 05:47:22;;;;;;;6.50;1.60;;;21.00;99.90;;;;;;12483725;28;20045;-81
2022/08/23 05:53:25;;;;;;;;;;;20.90;99.90;;;;;;12498447;28;20494;-81
2022/08/23 05:59:28;;;;;;;6.20;1.42;;;20.90;99.90;;;;;;12492479;28;19944;-80
2022/08/23 06:05:30;;;;;;;4.70;1.58;;;21.10;99.90;;;;;;12495184;28;20113;-80
2022/08/23 06:11:33;;;;;;;5.68;1.90;;;21.20;99.90;;;;;;12482218;28;20494;-80
2022/08/23 06:17:36;;;;;;;5.40;1.80;;;21.30;99.90;;;;;;12494571;28;20050;-80
2022/08/23 06:23:39;;;;;;;3.20;1.15;;;21.50;99.90;;;;;;12506785;28;20048;-80
2022/08/23 06:29:41;;;;;;;4.15;1.70;;;21.60;99.90;;;;;;12511606;28;20046;-80
2022/08/23 06:35:43;;;;;;;4.57;1.63;;;21.70;99.90;;;;;;12503048;28;20065;-80
2022/08/23 06:41:49;;;;;;;7.22;1.70;;;21.80;99.90;;;;;;12502297;28;20107;-80
2022/08/23 06:47:51;;;;;;;6.22;1.40;;;21.90;99.90;;;;;;12514310;28;20041;-80
2022/08/23 06:53:55;;;;;;;5.18;1.50;;;22.10;99.90;;;;;;12503065;28;20547;-81
2022/08/23 06:59:57;;;;;;;5.18;1.52;;;22.20;99.90;;;;;;12515078;28;20167;-81
2022/08/23 07:05:58;;;;;;;5.15;1.52;;;22.30;99.90;;;;;;12482963;28;20073;-80
2022/08/23 07:12:01;;;;;;;5.80;2.10;;;22.30;99.90;;;;;;12496307;28;20207;-81
2022/08/23 07:18:04;;;;;;;5.17;1.70;;;22.50;99.90;;;;;;12487711;28;20060;-83
2022/08/23 07:24:12;;;;;;;5.03;1.80;;;22.50;99.90;;;;;;12507161;28;20053;-81
2022/08/23 07:30:14;;;;;;;5.40;1.93;;;22.70;99.90;;;;;;12501650;28;20057;-81
2022/08/23 07:36:18;;;;;;;7.75;1.70;;;22.80;99.90;;;;;;12501818;28;20457;-83
2022/08/23 07:42:21;;;;;;;6.20;1.60;;;23.00;99.90;;;;;;12504557;28;20060;-81
2022/08/23 07:48:26;;;;;;;4.65;1.50;;;23.20;99.90;;;;;;12492642;28;20103;-82
2022/08/23 07:54:50;;;;;;;5.90;1.60;;;23.20;99.90;;;;;;12484228;28;20050;-81
2022/08/23 08:00:55;;;;;;;4.28;1.55;;;23.30;99.90;;;;;;12477740;28;20452;-82
2022/08/23 08:07:01;;;;;;;4.72;1.60;;;23.40;99.90;;;;;;12490947;28;20497;-81
2022/08/23 08:13:21;;;;;;;4.90;1.60;;;23.60;99.90;;;;;;12489920;28;20532;-82
2022/08/23 08:19:23;;;;;;;;;;;23.80;99.90;;;;;;12493738;28;20050;-81
2022/08/23 08:25:25;;;;;;;5.03;1.60;;;23.90;99.90;;;;;;12479255;28;19921;-82
2022/08/23 08:31:28;;;;;;;7.15;1.48;;;24.10;99.90;;;;;;12477607;28;20041;-81
2022/08/23 08:37:31;;;;;;;;;;;24.20;99.90;;;;;;12489902;28;20042;-80
2022/08/23 08:43:41;;;;;;;4.07;1.40;;;24.30;99.90;;;;;;12492240;28;19928;-81
2022/08/23 08:49:50;;;;;;;5.18;1.70;;;24.60;99.90;;;;;;12499663;28;20105;-82
2022/08/23 08:55:59;;;;;;;5.50;1.42;;;24.70;99.90;;;;;;12474260;28;20071;-81
2022/08/23 09:02:04;;;;;;;3.35;1.30;;;24.70;99.90;;;;;;12472387;28;20052;-81
2022/08/23 09:08:54;;;;;;;7.43;1.50;;;25.00;99.90;;;;;;12470133;28;20131;-81
2022/08/23 09:15:11;;;;;;;;;;;25.10;99.90;;;;;;12496271;28;20046;-81
2022/08/23 09:21:16;;;;;;;4.68;1.50;;;25.30;99.90;;;;;;12476561;28;19921;-81
2022/08/23 09:27:19;;;;;;;6.47;1.35;;;25.60;99.90;;;;;;12475134;28;20508;-81
2022/08/23 09:33:24;;;;;;;7.00;1.65;;;25.70;99.90;;;;;;12435195;28;20140;-81
2022/08/23 09:39:33;;;;;;;3.10;1.30;;;25.80;99.90;;;;;;12460653;28;20133;-81
2022/08/23 09:45:39;;;;;;;6.72;1.45;;;26.00;99.90;;;;;;12435144;28;20038;-82
2022/08/23 09:51:47;;;;;;;6.88;1.90;;;26.30;99.90;;;;;;12441641;28;20048;-81
2022/08/23 09:57:51;;;;;;;5.47;1.75;;;26.60;99.90;;;;;;12447035;28;20058;-83
2022/08/23 10:04:13;;;;;;;6.47;1.88;;;26.60;99.90;;;;;;12443228;28;20501;-81
2022/08/23 10:10:34;;;;;;;5.00;1.60;;;27.10;99.90;;;;;;12440442;28;20053;-81
2022/08/23 10:17:00;;;;;;;5.93;1.35;;;27.10;99.90;;;;;;12443860;28;20062;-81
2022/08/23 10:23:34;;;;;;;6.55;1.42;;;27.20;99.90;;;;;;12439542;28;20053;-83
2022/08/23 10:29:42;;;;;;;5.70;1.70;;;27.30;99.90;;;;;;12468853;28;20049;-81
2022/08/23 10:36:07;;;;;;;4.25;1.50;;;27.40;99.90;;;;;;12474699;28;20137;-81
2022/08/23 10:42:21;;;;;;;5.35;1.60;;;27.50;99.90;;;;;;12502037;28;20535;-81
2022/08/23 10:48:30;;;;;;;2.58;1.20;;;27.70;99.90;;;;;;12487763;28;20622;-82
2022/08/23 10:54:48;;;;;;;4.90;1.48;;;27.90;99.90;;;;;;12490052;28;20394;-82
2022/08/23 11:00:53;;;;;;;5.72;1.48;;;28.20;99.90;;;;;;12477423;28;20514;-82
2022/08/23 11:06:58;;;;;;;4.70;1.60;;;28.30;99.90;;;;;;12488909;28;20038;-82
2022/08/23 11:13:14;;;;;;;4.00;1.50;;;28.60;99.90;;;;;;12482684;28;20132;-81
2022/08/23 11:19:51;;;;;;;6.30;1.42;;;28.80;99.90;;;;;;12490614;28;20351;-83
2022/08/23 11:25:53;;;;;;;6.82;1.75;;;28.90;99.90;;;;;;12484613;28;20041;-82
2022/08/23 11:32:21;;;;;;;5.35;1.40;;;29.20;99.90;;;;;;12499142;28;20176;-82
2022/08/23 11:38:49;;;;;;;11.65;1.92;;;29.00;99.90;;;;;;12480902;28;20045;-82
2022/08/23 11:44:52;;;;;;;9.05;1.40;;;28.80;99.90;;;;;;12475475;28;20373;-82
2022/08/23 11:51:37;;;;;;;2.63;1.60;;;29.00;99.90;;;;;;12504552;28;20049;-82
2022/08/23 11:58:17;;;;;;;7.28;1.65;;;29.20;99.90;;;;;;12487844;28;20429;-82
2022/08/23 12:04:25;;;;;;;5.07;1.40;;;29.60;99.90;;;;;;12471349;28;20059;-83
2022/08/23 12:10:39;;;;;;;8.77;1.40;;;29.80;99.90;;;;;;12501545;28;20052;-82
2022/08/23 12:16:41;;;;;;;6.55;1.40;;;30.10;99.90;;;;;;12492478;28;20096;-82
2022/08/23 12:23:14;;;;;;;7.60;1.35;;;30.30;99.90;;;;;;12483491;28;20060;-83
2022/08/23 12:29:41;;;;;;;3.45;1.63;;;30.30;99.90;;;;;;12486294;28;20422;-82
2022/08/23 12:36:21;;;;;;;4.30;1.52;;;30.10;99.90;;;;;;12478329;28;20128;-82
2022/08/23 12:42:27;;;;;;;4.85;1.80;;;29.90;99.90;;;;;;12464610;28;20084;-82
2022/08/23 12:48:32;;;;;;;3.80;1.70;;;30.10;99.90;;;;;;12480121;28;20175;-82
2022/08/23 12:54:43;;;;;;;5.65;1.60;;;30.20;99.90;;;;;;12482752;28;20061;-82
2022/08/23 13:00:56;;;;;;;4.35;1.80;;;30.30;99.90;;;;;;12498676;28;20045;-88
2022/08/23 13:07:02;;;;;;;2.97;1.48;;;30.30;99.90;;;;;;12501202;28;20107;-84
2022/08/23 13:13:07;;;;;;;7.00;1.88;;;30.20;99.90;;;;;;12485138;28;20048;-86
2022/08/23 13:19:16;;;;;;;8.73;1.80;;;30.60;99.90;;;;;;12495051;28;20058;-83
2022/08/23 13:25:44;;;;;;;6.25;1.70;;;30.90;99.90;;;;;;12471338;28;20046;-82
2022/08/23 13:31:58;;;;;;;8.05;1.75;;;30.60;99.90;;;;;;12495792;28;20042;-85
2022/08/23 13:38:14;;;;;;;7.97;1.83;;;30.30;99.90;;;;;;12477682;28;20390;-86
2022/08/23 13:44:23;;;;;;;3.47;1.70;;;30.70;99.90;;;;;;12488704;28;20053;-82
2022/08/23 13:50:31;;;;;;;4.05;1.70;;;30.70;99.90;;;;;;12491875;28;20099;-82
2022/08/23 13:56:59;;;;;;;3.28;1.60;;;30.50;99.90;;;;;;12501500;28;20081;-83
2022/08/23 14:03:03;;;;;;;6.78;1.50;;;30.40;99.90;;;;;;12476374;28;20064;-83
2022/08/23 14:09:06;;;;;;;5.00;2.05;;;30.50;99.90;;;;;;12488782;28;20069;-83
2022/08/23 14:15:10;;;;;;;6.45;1.73;;;30.50;99.90;;;;;;12484294;28;20049;-83
2022/08/23 14:21:13;;;;;;;5.78;2.03;;;30.50;99.90;;;;;;12486617;28;20045;-83
2022/08/23 14:27:16;;;;;;;5.03;1.50;;;29.90;99.90;;;;;;12482124;28;20413;-83
2022/08/23 14:33:20;;;;;;;;;;;30.50;99.90;;;;;;12505582;28;20053;-83
2022/08/23 14:39:23;;;;;;;8.05;1.65;;;30.70;99.90;;;;;;12494752;28;19921;-83
2022/08/23 14:45:26;;;;;;;4.38;1.55;;;30.80;99.90;;;;;;12490264;28;20579;-82
2022/08/23 14:51:35;;;;;;;5.22;1.80;;;30.30;99.90;;;;;;12495838;28;20053;-83
2022/08/23 14:57:44;;;;;;;5.35;1.67;;;30.70;99.90;;;;;;12495534;28;20052;-83
2022/08/23 15:03:46;;;;;;;;;;;30.70;99.90;;;;;;12510877;28;20049;-83
2022/08/23 15:09:49;;;;;;;;;;;30.10;99.90;;;;;;12492258;28;19921;-83
2022/08/23 15:15:52;;;;;;;3.55;1.70;;;29.90;99.90;;;;;;12500035;28;20436;-83
2022/08/23 15:21:54;;;;;;;5.88;1.60;;;29.60;99.90;;;;;;12491570;28;20048;-83
2022/08/23 15:27:56;;;;;;;;;;;29.30;99.90;;;;;;12498602;28;20118;-83
2022/08/23 15:33:59;;;;;;;4.90;2.33;;;29.00;99.90;;;;;;12481373;28;19947;-83
2022/08/23 15:40:02;;;;;;;7.45;1.92;;;28.80;99.90;;;;;;12479472;28;20054;-83
2022/08/23 15:46:07;;;;;;;5.38;1.90;;;28.70;99.90;;;;;;12483296;28;20041;-83
2022/08/23 15:52:09;;;;;;;6.88;1.90;;;28.60;99.90;;;;;;12482185;28;20504;-83
2022/08/23 15:58:21;;;;;;;8.10;1.60;;;28.80;99.90;;;;;;12479595;28;20152;-82
2022/08/23 16:04:23;;;;;;;4.72;2.00;;;29.60;99.90;;;;;;12475729;28;20426;-82
2022/08/23 16:10:25;;;;;;;5.72;1.70;;;30.10;99.90;;;;;;12496976;28;20114;-83
2022/08/23 16:16:32;;;;;;;4.85;1.88;;;29.70;99.90;;;;;;12495500;28;20045;-83
2022/08/23 16:22:35;;;;;;;10.70;2.03;;;29.40;99.90;;;;;;12485129;28;20486;-82
2022/08/23 16:28:37;;;;;;;;;;;29.10;99.90;;;;;;12474311;28;20057;-82
2022/08/23 16:34:39;;;;;;;5.15;1.73;;;28.80;99.90;;;;;;12490648;28;19936;-82
2022/08/23 16:40:43;;;;;;;4.55;1.90;;;28.70;99.90;;;;;;12476554;28;20429;-82
2022/08/23 16:46:46;;;;;;;8.68;2.30;;;28.40;99.90;;;;;;12483964;28;20076;-82
2022/08/23 16:52:48;;;;;;;7.93;1.80;;;28.30;99.90;;;;;;12497751;28;20045;-82
2022/08/23 16:58:51;;;;;;;4.70;1.95;;;28.20;99.90;;;;;;12494799;28;20103;-82
2022/08/23 17:04:54;;;;;;;6.18;1.85;;;28.10;99.90;;;;;;12474081;28;20049;-82
2022/08/23 17:10:57;;;;;;;6.28;1.73;;;28.00;99.90;;;;;;12498680;28;20109;-82
2022/08/23 17:17:03;;;;;;;5.93;1.88;;;27.90;99.90;;;;;;12470466;28;20489;-83
2022/08/23 17:23:07;;;;;;;8.00;2.08;;;27.80;99.90;;;;;;12505109;28;20052;-83
2022/08/23 17:29:11;;;;;;;6.18;1.90;;;27.70;99.90;;;;;;12475613;28;20045;-82
2022/08/23 17:35:14;;;;;;;6.97;2.17;;;27.60;99.90;;;;;;12482259;28;20069;-83
2022/08/23 17:41:16;;;;;;;6.68;1.88;;;27.50;99.90;;;;;;12483827;28;20041;-83
2022/08/23 17:47:18;;;;;;;8.10;1.87;;;27.40;99.90;;;;;;12478493;28;20521;-83
2022/08/23 17:53:21;;;;;;;6.80;2.10;;;27.30;99.90;;;;;;12504570;28;20490;-82
2022/08/23 17:59:24;;;;;;;6.40;2.03;;;27.20;99.90;;;;;;12487597;28;20057;-83
2022/08/23 18:05:28;;;;;;;8.80;2.00;;;27.10;99.90;;;;;;12500292;28;20097;-83
2022/08/23 18:11:30;;;;;;;5.07;1.95;;;27.10;99.90;;;;;;12500281;28;20041;-83
2022/08/23 18:17:33;;;;;;;4.97;2.35;;;27.00;99.90;;;;;;12499611;28;20049;-83
2022/08/23 18:23:35;;;;;;;;;;;26.80;99.90;;;;;;12489742;28;20062;-83
2022/08/23 18:29:37;;;;;;;3.63;1.98;;;26.60;99.90;;;;;;12501599;28;20002;-82
2022/08/23 18:35:40;;;;;;;12.47;2.20;;;26.40;99.90;;;;;;12507473;28;20044;-83
2022/08/23 18:41:42;;;;;;;;;;;26.20;99.90;;;;;;12481054;28;20312;-82
2022/08/23 18:47:45;;;;;;;8.63;1.85;;;26.10;99.90;;;;;;12472957;28;20016;-83
2022/08/23 18:53:47;;;;;;;7.07;1.80;;;26.20;99.90;;;;;;12497924;28;20099;-82
2022/08/23 18:59:49;;;;;;;8.77;1.73;;;26.10;99.90;;;;;;12480224;28;20046;-82
2022/08/23 19:05:51;;;;;;;5.37;1.70;;;26.00;99.90;;;;;;12489058;28;20048;-82
2022/08/23 19:11:53;;;;;;;8.23;1.87;;;25.90;99.90;;;;;;12482442;28;20311;-82
2022/08/23 19:17:58;;;;;;;8.00;1.80;;;25.80;99.90;;;;;;12478337;28;20084;-82
2022/08/23 19:24:00;;;;;;;7.63;1.80;;;25.80;99.90;;;;;;12494249;28;20168;-81
2022/08/23 19:30:04;;;;;;;4.87;1.40;;;25.70;99.90;;;;;;12500259;28;20060;-82
2022/08/23 19:36:07;;;;;;;5.65;1.75;;;25.30;99.90;;;;;;12503619;28;20045;-82
2022/08/23 19:42:35;;;;;;;4.63;1.17;;;25.20;99.90;;;;;;12480190;28;20263;-82
2022/08/23 19:48:37;;;;;;;2.80;1.33;;;25.00;99.90;;;;;;12496713;28;20054;-81
2022/08/23 19:54:39;;;;;;;6.57;1.30;;;25.00;99.90;;;;;;12473561;28;20529;-82
2022/08/23 20:00:42;;;;;;;6.70;1.13;;;24.90;99.90;;;;;;12481830;28;20056;-81
2022/08/23 20:06:44;;;;;;;4.10;1.30;;;24.90;99.90;;;;;;12466905;28;20680;-81
2022/08/23 20:12:46;;;;;;;6.23;1.30;;;24.90;99.90;;;;;;12485349;28;20084;-81
2022/08/23 20:18:50;;;;;;;4.97;1.10;;;24.80;99.90;;;;;;12470431;28;20064;-81
2022/08/23 20:24:52;;;;;;;7.43;1.13;;;24.70;99.90;;;;;;12486901;28;20086;-82
2022/08/23 20:30:54;;;;;;;4.97;1.42;;;24.60;99.90;;;;;;12481987;28;20048;-81
2022/08/23 20:36:56;;;;;;;5.38;1.10;;;24.50;99.90;;;;;;12495496;28;20050;-82
2022/08/23 20:42:59;;;;;;;2.67;1.10;;;24.50;99.90;;;;;;12509792;28;20141;-81
2022/08/23 20:49:01;;;;;;;6.28;1.25;;;24.50;99.90;;;;;;12504290;28;20057;-81
2022/08/23 20:55:04;;;;;;;5.23;1.13;;;24.40;99.90;;;;;;12476042;28;20109;-82
2022/08/23 21:01:13;;;;;;;3.95;1.10;;;24.60;99.90;;;;;;12479851;28;20493;-82
2022/08/23 21:07:15;;;;;;;2.85;1.00;;;24.50;99.90;;;;;;12488739;28;20046;-81
2022/08/23 21:13:17;;;;;;;6.13;1.30;;;24.30;99.90;;;;;;12463062;28;20069;-82
2022/08/23 21:19:19;;;;;;;7.05;1.30;;;24.10;99.90;;;;;;12481326;28;20045;-81
2022/08/23 21:25:21;;;;;;;3.10;1.10;;;24.10;99.90;;;;;;12477545;28;20057;-82
2022/08/23 21:31:25;;;;;;;2.53;1.03;;;24.00;99.90;;;;;;12417790;28;20042;-81
2022/08/23 21:37:27;;;;;;;5.45;1.20;;;23.90;99.90;;;;;;12397999;28;20053;-82
2022/08/23 21:43:31;;;;;;;5.63;1.10;;;24.00;99.90;;;;;;12401059;28;20518;-81
2022/08/23 21:49:34;;;;;;;;;;;24.00;99.90;;;;;;12393644;28;20129;-81
2022/08/23 21:55:35;;;;;;;3.70;1.23;;;23.80;99.90;;;;;;12424510;28;19928;-81
2022/08/23 22:01:38;;;;;;;4.43;0.95;;;23.80;99.90;;;;;;12397146;28;20049;-81
2022/08/23 22:07:41;;;;;;;3.87;0.87;;;23.90;99.90;;;;;;12421187;28;20058;-82
2022/08/23 22:13:44;;;;;;;6.63;1.20;;;23.90;99.90;;;;;;12394529;28;20049;-80
2022/08/23 22:19:45;;;;;;;2.50;1.33;;;23.90;99.90;;;;;;12385586;28;20406;-80
2022/08/23 22:25:51;;;;;;;4.80;1.10;;;23.90;99.90;;;;;;12405917;28;20058;-81
2022/08/23 22:31:53;;;;;;;1.85;1.00;;;23.80;99.90;;;;;;12411633;28;20049;-81
2022/08/23 22:37:55;;;;;;;2.25;0.90;;;23.80;99.90;;;;;;12407797;28;20043;-80
2022/08/23 22:44:14;;;;;;;4.32;1.00;;;23.70;99.90;;;;;;12413714;28;20137;-82
2022/08/23 22:50:20;;;;;;;4.40;1.10;;;23.70;99.90;;;;;;12409902;28;20065;-81
2022/08/23 22:56:27;;;;;;;5.35;1.42;;;23.70;99.90;;;;;;12412300;28;20043;-81
2022/08/23 23:02:31;;;;;;;5.25;1.00;;;23.60;99.90;;;;;;12415317;28;20054;-81
2022/08/23 23:08:33;;;;;;;2.38;1.05;;;23.60;99.90;;;;;;12405665;28;20039;-81
2022/08/23 23:14:34;;;;;;;5.70;1.38;;;23.60;99.90;;;;;;12431865;28;20085;-82
2022/08/23 23:20:38;;;;;;;4.35;1.20;;;23.50;99.90;;;;;;12409806;28;20093;-81
2022/08/23 23:26:40;;;;;;;3.72;1.10;;;23.50;99.90;;;;;;12414754;28;20442;-82
2022/08/23 23:32:48;;;;;;;3.97;1.17;;;23.50;99.90;;;;;;12419395;28;20042;-82
2022/08/23 23:38:51;;;;;;;4.47;0.98;;;23.50;99.90;;;;;;12414601;28;20058;-81
2022/08/23 23:44:55;;;;;;;4.07;1.10;;;23.40;99.90;;;;;;12434436;28;20038;-81
2022/08/23 23:51:03;;;;;;;4.63;1.08;;;23.30;99.90;;;;;;12423386;28;20085;-82
2022/08/23 23:57:06;;;;;;;2.17;1.00;;;23.30;99.90;;;;;;12409681;28;20047;-81
